Brooksville, ME (04617)

9:41 AM EDT on July 23, 2016 (GMT -0400)
Maine Maritime Academy | | Change Station

Elev 0 ft 44.39 °N, 68.80 °W | Updated 1 second ago

Overcast
Overcast
74.6 °F
Feels Like 76 °F
N
3.3
Wind Variable Wind from SW
Gusts 5.0 mph

Today
High -- | Low -- °F
--% Chance of Precip.
Yesterday
High -- | Low -- °F
Precip. -- in
Pressure 29.72 in
Visibility 10.0 miles
Clouds Overcast 6000 ft
Heat Index 76 °F
Dew Point 66 °F
Humidity 76%
Rainfall 0.25 in
Snow Depth Not available.
5:12 AM 8:09 PM
Waning Gibbous, 85% visible
METAR KBHB 231256Z AUTO 19005KT 10SM OVC060 23/20 A2971 RMK AO2 SLP064 T02280200
Pressure 29.72 in
Visibility 10.0 miles
Clouds Overcast 6000 ft
Heat Index 76 °F
Dew Point 66 °F
Humidity 76%
Rainfall 0.25 in
Snow Depth Not available.
5:12 AM 8:09 PM
Waning Gibbous, 85% visible
METAR KBHB 231256Z AUTO 19005KT 10SM OVC060 23/20 A2971 RMK AO2 SLP064 T02280200

10-Day Weather Forecast

Almanac

Astronomy

Jul. 23, 2016 Rise Set
Actual Time
Civil Twilight
Nautical Twilight
Astronomical Twilight
Moon
Length of Visible Light
Length of Day
Tomorrow will be .
, % of the Moon is Illuminated

Today's Extremes

State Highs State Lows

Community

WunderPhotos

Upload Photos

1,926,818 photos uploaded!

WunderBlog® & News

Nearby

Air Quality

  Air Quality AQ Index Pollutant
Not available.

Snow Depth

Station Depth Elevation

Earthquake Activity

City Distance Mag. Time & Date
Minimum magnitude displayed is 2.5.

Coastal Water Temperatures

Place Temperature

Stations

Nearby Weather Stations

Station Location Temp. Windchill Dew Point Humidity Wind Precip. Elev Updated Type
                   

Watches & Warnings

There are currently no watches in effect.